Byron, Wisconsin
Current Conditions -  °F | °C
As of 7:53 PM on Sunday 21 Dec 2014 (Local Time) from KFLD Reporting Station
Overcast Overcast  
Wind Chill: 26°   Ceiling: 2700
Heat Index: 36°   Visibility: 9mi
Dew Point: 29°   Wind: 18mph
Humidity: 76%   Direction: 170°S
Pressure: 29.98"   Gusts: 29mph
Location:  43.65°N, 88.45°W
Report Text: KFLD 220153Z AUTO 17016G25KT 9SM OVC027 02/M02 A2998 RMK AO2 SLP159 T00221017
Loading
Personal Weather Stations






























Interactive Weather Map New forecast layout! Learn more

10-Day Weather Forecast

Advertisements
Track Severe Weather on mobile